Time;durP1;ratioP1;P1;durP2;ratioP2;P2;SDS_P1;SDS_P2;PMS_P1;PMS_P2;Temp;Humidity;BMP_temperature;BMP_pressure;BME280_temperature;BME280_humidity;BME280_pressure;Samples;Min_cycle;Max_cycle;Signal;HPM_P1;HPM_P2
2023/04/13 00:01:55;;;;;;;0.30;0.30;;;;;;;;;;5016075;28;20038;-81
2023/04/13 00:04:21;;;;;;;0.15;0.15;;;;;;;;;;5015684;28;20037;-82
2023/04/13 00:06:48;;;;;;;4.68;3.20;;;;;;;;;;4997720;28;20112;-90
2023/04/13 00:09:15;;;;;;;0.10;0.10;;;;;;;;;;4997617;28;20042;-89
2023/04/13 00:11:40;;;;;;;0.10;0.10;;;;;;;;;;4981992;28;20030;-88
2023/04/13 00:14:06;;;;;;;0.10;0.10;;;;;;;;;;5015681;28;20085;-87
2023/04/13 00:16:31;;;;;;;0.10;0.10;;;;;;;;;;5015556;28;20033;-86
2023/04/13 00:18:57;;;;;;;0.10;0.10;;;;;;;;;;5014220;28;20128;-86
2023/04/13 00:21:24;;;;;;;0.13;0.13;;;;;;;;;;4997939;28;20397;-85
2023/04/13 00:23:51;;;;;;;0.15;0.15;;;;;;;;;;4997862;28;20543;-87
2023/04/13 00:26:20;;;;;;;0.10;0.10;;;;;;;;;;5015187;28;20065;-86
2023/04/13 00:28:46;;;;;;;0.20;0.20;;;;;;;;;;5015638;28;20038;-85
2023/04/13 00:31:11;;;;;;;0.10;0.10;;;;;;;;;;4997514;28;20030;-84
2023/04/13 00:33:37;;;;;;;0.40;0.40;;;;;;;;;;5014990;28;20029;-85
2023/04/13 00:36:02;;;;;;;0.10;0.10;;;;;;;;;;4997037;28;20038;-85
2023/04/13 00:38:28;;;;;;;0.45;0.35;;;;;;;;;;5015016;28;20152;-83
2023/04/13 00:40:54;;;;;;;0.43;0.40;;;;;;;;;;5014980;28;20037;-83
2023/04/13 00:43:20;;;;;;;0.10;0.10;;;;;;;;;;5014916;28;20084;-84
2023/04/13 00:45:47;;;;;;;6.93;3.60;;;;;;;;;;5014795;28;20485;-87
2023/04/13 00:48:13;;;;;;;0.10;0.10;;;;;;;;;;5012384;28;20049;-88
2023/04/13 00:50:40;;;;;;;0.32;0.32;;;;;;;;;;4997428;28;20057;-89
2023/04/13 00:53:06;;;;;;;0.20;0.20;;;;;;;;;;4997306;28;20030;-86
2023/04/13 00:55:32;;;;;;;0.10;0.10;;;;;;;;;;5015524;28;20478;-85
2023/04/13 00:57:58;;;;;;;0.30;0.30;;;;;;;;;;5014480;28;20053;-79
2023/04/13 01:00:24;;;;;;;0.10;0.10;;;;;;;;;;5014516;28;20113;-78
2023/04/13 01:02:51;;;;;;;0.10;0.10;;;;;;;;;;5013163;28;20036;-79
2023/04/13 01:05:17;;;;;;;0.80;0.80;;;;;;;;;;4980665;28;20037;-79
2023/04/13 01:07:58;;;;;;;0.25;0.25;;;;;;;;;;4996762;28;20561;-79
2023/04/13 01:10:34;;;;;;;0.10;0.10;;;;;;;;;;4997039;28;20042;-78
2023/04/13 01:13:11;;;;;;;0.20;0.20;;;;;;;;;;4996096;28;20033;-81
2023/04/13 01:16:10;;;;;;;0.25;0.25;;;;;;;;;;4996792;28;20092;-84
2023/04/13 01:18:39;;;;;;;0.10;0.10;;;;;;;;;;4991979;28;20064;-80
2023/04/13 01:21:07;;;;;;;0.20;0.20;;;;;;;;;;4995895;28;20035;-86
2023/04/13 01:23:41;;;;;;;0.15;0.15;;;;;;;;;;5014165;28;20029;-87
2023/04/13 01:26:07;;;;;;;0.20;0.20;;;;;;;;;;4996635;28;20065;-87
2023/04/13 01:28:34;;;;;;;0.10;0.10;;;;;;;;;;4980686;28;20080;-89
2023/04/13 01:31:00;;;;;;;0.20;0.20;;;;;;;;;;4997296;28;20046;-88
2023/04/13 01:33:29;;;;;;;0.10;0.10;;;;;;;;;;4996776;28;20096;-88
2023/04/13 01:35:55;;;;;;;0.10;0.10;;;;;;;;;;4980945;28;20057;-88
2023/04/13 01:38:25;;;;;;;0.10;0.10;;;;;;;;;;5000152;28;20022;-81
2023/04/13 01:40:52;;;;;;;0.10;0.10;;;;;;;;;;5000335;28;20038;-81
2023/04/13 01:43:19;;;;;;;0.10;0.10;;;;;;;;;;4981763;28;20171;-80
2023/04/13 01:46:02;;;;;;;;;;;;;;;;;;4997001;28;20049;-80
2023/04/13 01:48:36;;;;;;;0.10;0.10;;;;;;;;;;4996875;28;19973;-82
2023/04/13 01:51:18;;;;;;;0.28;0.28;;;;;;;;;;4981299;28;20057;-78
2023/04/13 01:54:00;;;;;;;0.10;0.10;;;;;;;;;;4996251;28;20088;-78
2023/04/13 01:56:27;;;;;;;0.10;0.10;;;;;;;;;;4996771;28;20124;-77
2023/04/13 01:58:57;;;;;;;0.10;0.10;;;;;;;;;;4980329;28;20030;-85
2023/04/13 02:01:24;;;;;;;0.73;0.73;;;;;;;;;;5014092;28;20044;-85
2023/04/13 02:03:50;;;;;;;0.10;0.10;;;;;;;;;;4996502;28;20470;-85
2023/04/13 02:06:16;;;;;;;0.28;0.28;;;;;;;;;;4995867;28;20037;-86
2023/04/13 02:08:42;;;;;;;0.17;0.17;;;;;;;;;;4980553;28;20402;-86
2023/04/13 02:11:11;;;;;;;0.10;0.10;;;;;;;;;;4996982;28;20026;-88
2023/04/13 02:13:37;;;;;;;0.10;0.10;;;;;;;;;;5009363;28;20042;-81
2023/04/13 02:16:05;;;;;;;0.20;0.20;;;;;;;;;;5002361;28;20042;-82
2023/04/13 02:18:30;;;;;;;0.10;0.10;;;;;;;;;;5024953;28;20448;-82
2023/04/13 02:21:07;;;;;;;0.22;0.22;;;;;;;;;;4996032;28;20061;-82
2023/04/13 02:23:34;;;;;;;0.25;0.25;;;;;;;;;;4996025;28;20046;-81
2023/04/13 02:26:00;;;;;;;0.10;0.10;;;;;;;;;;4995915;28;20034;-81
2023/04/13 02:28:26;;;;;;;0.10;0.10;;;;;;;;;;4995712;28;20087;-81
2023/04/13 02:30:53;;;;;;;0.20;0.20;;;;;;;;;;4995869;28;20490;-82
2023/04/13 02:33:20;;;;;;;0.10;0.10;;;;;;;;;;4995879;28;20087;-81
2023/04/13 02:35:48;;;;;;;0.35;0.35;;;;;;;;;;5013518;28;20124;-82
2023/04/13 02:38:14;;;;;;;0.10;0.10;;;;;;;;;;4995880;28;20038;-81
2023/04/13 02:40:44;;;;;;;0.50;0.50;;;;;;;;;;4979512;28;20036;-82
2023/04/13 02:43:11;;;;;;;0.20;0.20;;;;;;;;;;4995637;28;20042;-82
2023/04/13 02:45:38;;;;;;;0.10;0.10;;;;;;;;;;4995657;28;20375;-82
2023/04/13 02:48:05;;;;;;;0.20;0.20;;;;;;;;;;4995716;28;20026;-82
2023/04/13 02:50:31;;;;;;;1.73;0.20;;;;;;;;;;4994789;28;20034;-81
2023/04/13 02:53:02;;;;;;;0.10;0.10;;;;;;;;;;4995588;28;20061;-81
2023/04/13 02:55:28;;;;;;;0.10;0.10;;;;;;;;;;4996772;28;20064;-78
2023/04/13 02:58:05;;;;;;;0.10;0.10;;;;;;;;;;4999082;28;20057;-78
2023/04/13 03:00:34;;;;;;;0.10;0.10;;;;;;;;;;4998963;28;20080;-77
2023/04/13 03:03:05;;;;;;;0.10;0.10;;;;;;;;;;4995001;28;20549;-76
2023/04/13 03:05:40;;;;;;;0.28;0.28;;;;;;;;;;4995212;28;20053;-76
2023/04/13 03:08:10;;;;;;;0.10;0.10;;;;;;;;;;4993736;28;20041;-76
2023/04/13 03:10:42;;;;;;;0.68;0.68;;;;;;;;;;4995183;28;20036;-75
2023/04/13 03:13:07;;;;;;;0.10;0.10;;;;;;;;;;4995013;28;20038;-76
2023/04/13 03:15:33;;;;;;;0.10;0.10;;;;;;;;;;4994901;28;20049;-77
2023/04/13 03:17:59;;;;;;;0.10;0.10;;;;;;;;;;4994839;28;20036;-77
2023/04/13 03:20:27;;;;;;;0.10;0.10;;;;;;;;;;4994985;28;20087;-77
2023/04/13 03:22:57;;;;;;;0.20;0.20;;;;;;;;;;5011178;28;20033;-76
2023/04/13 03:25:23;;;;;;;0.10;0.10;;;;;;;;;;4994667;28;20103;-77
2023/04/13 03:27:49;;;;;;;0.10;0.10;;;;;;;;;;4994936;28;20482;-77
2023/04/13 03:30:17;;;;;;;0.10;0.10;;;;;;;;;;4994718;28;20410;-76
2023/04/13 03:32:59;;;;;;;0.20;0.20;;;;;;;;;;5012300;28;20509;-75
2023/04/13 03:35:28;;;;;;;0.13;0.13;;;;;;;;;;4994440;28;20048;-77
2023/04/13 03:37:55;;;;;;;0.20;0.20;;;;;;;;;;4994503;28;20034;-77
2023/04/13 03:40:32;;;;;;;0.10;0.10;;;;;;;;;;4993413;28;20496;-75
2023/04/13 03:42:59;;;;;;;0.10;0.10;;;;;;;;;;4994311;28;20041;-75
2023/04/13 03:45:27;;;;;;;0.10;0.10;;;;;;;;;;4994110;28;20034;-75
2023/04/13 03:47:56;;;;;;;0.10;0.10;;;;;;;;;;4994251;28;20492;-75
2023/04/13 03:50:22;;;;;;;0.10;0.10;;;;;;;;;;5012385;28;20250;-77
2023/04/13 03:52:49;;;;;;;0.10;0.10;;;;;;;;;;4994563;28;20083;-76
2023/04/13 03:55:15;;;;;;;0.13;0.13;;;;;;;;;;4993578;28;20915;-76
2023/04/13 03:57:42;;;;;;;0.10;0.10;;;;;;;;;;4994622;28;20033;-78
2023/04/13 04:00:14;;;;;;;0.10;0.10;;;;;;;;;;4993363;28;20054;-75
2023/04/13 04:02:46;;;;;;;0.20;0.20;;;;;;;;;;4985287;28;20031;-76
2023/04/13 04:05:17;;;;;;;0.30;0.30;;;;;;;;;;4974594;28;20053;-77
2023/04/13 04:07:46;;;;;;;0.38;0.17;;;;;;;;;;4987154;28;20397;-77
2023/04/13 04:10:11;;;;;;;0.10;0.10;;;;;;;;;;5011583;28;20517;-77
2023/04/13 04:12:36;;;;;;;0.10;0.10;;;;;;;;;;4994195;28;20235;-78
2023/04/13 04:15:05;;;;;;;0.60;0.40;;;;;;;;;;4993425;28;20036;-77
2023/04/13 04:17:32;;;;;;;0.10;0.10;;;;;;;;;;4993744;28;20108;-80
2023/04/13 04:19:57;;;;;;;0.10;0.10;;;;;;;;;;4993598;28;20037;-77
2023/04/13 04:22:28;;;;;;;0.20;0.20;;;;;;;;;;4993670;28;20152;-78
2023/04/13 04:24:58;;;;;;;0.15;0.15;;;;;;;;;;4993731;28;20445;-78
2023/04/13 04:27:25;;;;;;;1.23;0.57;;;;;;;;;;4993279;28;20445;-78
2023/04/13 04:29:57;;;;;;;0.75;0.75;;;;;;;;;;4991876;28;20603;-77
2023/04/13 04:32:27;;;;;;;0.10;0.10;;;;;;;;;;4977902;28;20044;-77
2023/04/13 04:34:54;;;;;;;0.10;0.10;;;;;;;;;;4992068;28;20036;-76
2023/04/13 04:37:24;;;;;;;0.30;0.30;;;;;;;;;;4977302;28;20040;-77
2023/04/13 04:40:00;;;;;;;1.27;1.27;;;;;;;;;;4993548;28;20046;-77
2023/04/13 04:42:26;;;;;;;0.10;0.10;;;;;;;;;;4993437;28;20034;-76
2023/04/13 04:44:55;;;;;;;0.10;0.10;;;;;;;;;;4993012;28;20037;-76
2023/04/13 04:47:23;;;;;;;0.20;0.20;;;;;;;;;;4991593;28;20034;-77
2023/04/13 04:50:08;;;;;;;0.10;0.10;;;;;;;;;;4993040;28;20033;-76
2023/04/13 04:52:37;;;;;;;0.20;0.20;;;;;;;;;;4992418;28;20034;-76
2023/04/13 04:55:05;;;;;;;0.10;0.10;;;;;;;;;;4991384;28;20045;-77
2023/04/13 04:57:35;;;;;;;0.10;0.10;;;;;;;;;;5010409;28;20037;-76
2023/04/13 05:00:05;;;;;;;0.10;0.10;;;;;;;;;;4992863;28;20087;-78
2023/04/13 05:02:31;;;;;;;0.10;0.10;;;;;;;;;;4988117;28;20053;-78
2023/04/13 05:04:56;;;;;;;0.10;0.10;;;;;;;;;;4991365;28;20033;-80
2023/04/13 05:07:22;;;;;;;0.10;0.10;;;;;;;;;;4974261;28;20041;-82
2023/04/13 05:09:47;;;;;;;0.20;0.20;;;;;;;;;;4983628;28;20026;-81
2023/04/13 05:12:13;;;;;;;0.10;0.10;;;;;;;;;;4973068;28;20128;-80
2023/04/13 05:14:42;;;;;;;0.17;0.17;;;;;;;;;;4977145;28;20405;-81
2023/04/13 05:17:08;;;;;;;1.15;0.70;;;;;;;;;;4978630;28;20092;-80
2023/04/13 05:19:37;;;;;;;0.10;0.10;;;;;;;;;;4999572;28;20084;-81
2023/04/13 05:22:14;;;;;;;0.25;0.25;;;;;;;;;;4990778;28;20268;-80
2023/04/13 05:24:46;;;;;;;0.10;0.10;;;;;;;;;;4989406;28;20038;-78
2023/04/13 05:27:14;;;;;;;0.20;0.20;;;;;;;;;;4989372;28;20190;-79
2023/04/13 05:29:40;;;;;;;0.30;0.30;;;;;;;;;;4973151;28;20494;-86
2023/04/13 05:32:06;;;;;;;0.17;0.17;;;;;;;;;;4989291;28;20549;-83
2023/04/13 05:34:32;;;;;;;0.10;0.10;;;;;;;;;;5002542;28;20046;-77
2023/04/13 05:37:08;;;;;;;0.17;0.17;;;;;;;;;;4992548;28;20065;-84
2023/04/13 05:39:34;;;;;;;0.15;0.15;;;;;;;;;;4992250;28;20037;-79
2023/04/13 05:42:00;;;;;;;0.10;0.10;;;;;;;;;;4992494;28;20092;-80
2023/04/13 05:44:28;;;;;;;0.10;0.10;;;;;;;;;;4992195;28;20065;-81
2023/04/13 05:46:54;;;;;;;0.90;0.30;;;;;;;;;;4992034;28;20072;-80
2023/04/13 05:49:19;;;;;;;0.10;0.10;;;;;;;;;;5008631;28;20088;-85
2023/04/13 05:51:46;;;;;;;0.70;0.40;;;;;;;;;;4992176;28;20054;-80
2023/04/13 05:54:12;;;;;;;0.10;0.10;;;;;;;;;;4992159;28;20026;-81
2023/04/13 05:56:40;;;;;;;0.10;0.10;;;;;;;;;;4992249;28;20437;-79
2023/04/13 05:59:06;;;;;;;0.45;0.20;;;;;;;;;;5009452;28;20073;-81
2023/04/13 06:01:31;;;;;;;0.20;0.20;;;;;;;;;;4970512;28;20033;-82
2023/04/13 06:03:57;;;;;;;0.10;0.10;;;;;;;;;;5003679;28;20493;-79
2023/04/13 06:06:23;;;;;;;0.10;0.10;;;;;;;;;;5003114;28;20096;-76
2023/04/13 06:08:49;;;;;;;0.10;0.10;;;;;;;;;;5002360;28;20034;-82
2023/04/13 06:11:15;;;;;;;0.10;0.10;;;;;;;;;;4989818;28;20030;-80
2023/04/13 06:13:41;;;;;;;0.10;0.10;;;;;;;;;;5007597;28;20034;-82
2023/04/13 06:16:07;;;;;;;0.98;0.35;;;;;;;;;;5010449;28;20390;-83
2023/04/13 06:18:33;;;;;;;0.20;0.20;;;;;;;;;;4983703;28;20046;-76
2023/04/13 06:20:58;;;;;;;0.10;0.10;;;;;;;;;;4992252;28;20540;-81
2023/04/13 06:23:24;;;;;;;0.20;0.20;;;;;;;;;;5001097;28;20038;-82
2023/04/13 06:25:52;;;;;;;0.20;0.20;;;;;;;;;;4982176;28;20034;-77
2023/04/13 06:28:29;;;;;;;0.10;0.10;;;;;;;;;;4985621;28;20036;-80
2023/04/13 06:30:56;;;;;;;0.20;0.20;;;;;;;;;;5000097;28;20128;-78
2023/04/13 06:33:25;;;;;;;0.28;0.28;;;;;;;;;;4984531;28;20117;-78
2023/04/13 06:35:52;;;;;;;0.55;0.47;;;;;;;;;;4985181;28;20390;-79
2023/04/13 06:38:18;;;;;;;0.10;0.10;;;;;;;;;;4964488;28;20041;-82
2023/04/13 06:40:59;;;;;;;0.17;0.17;;;;;;;;;;4985994;28;20029;-83
2023/04/13 06:43:25;;;;;;;0.15;0.15;;;;;;;;;;5001711;28;20034;-78
2023/04/13 06:46:05;;;;;;;0.30;0.30;;;;;;;;;;4997341;28;20064;-79
2023/04/13 06:48:36;;;;;;;0.10;0.10;;;;;;;;;;4982756;28;20125;-83
2023/04/13 06:51:11;;;;;;;0.10;0.10;;;;;;;;;;4990234;28;20123;-84
2023/04/13 06:53:53;;;;;;;0.30;0.30;;;;;;;;;;4992286;28;20041;-75
2023/04/13 06:56:19;;;;;;;0.10;0.10;;;;;;;;;;4988053;28;20471;-79
2023/04/13 06:58:45;;;;;;;0.10;0.10;;;;;;;;;;4990727;28;20030;-85
2023/04/13 07:01:15;;;;;;;0.32;0.32;;;;;;;;;;5011685;28;20034;-78
2023/04/13 07:03:43;;;;;;;0.15;0.15;;;;;;;;;;4983235;28;20078;-82
2023/04/13 07:06:20;;;;;;;0.20;0.20;;;;;;;;;;4990352;28;20045;-78
2023/04/13 07:08:46;;;;;;;22.58;1.50;;;;;;;;;;4994472;28;20057;-76
2023/04/13 07:11:13;;;;;;;0.13;0.13;;;;;;;;;;5003788;28;20477;-78
2023/04/13 07:13:53;;;;;;;0.82;0.82;;;;;;;;;;4982812;28;20117;-77
2023/04/13 07:16:19;;;;;;;0.20;0.20;;;;;;;;;;5010463;28;20041;-80
2023/04/13 07:18:46;;;;;;;0.15;0.15;;;;;;;;;;4992318;28;20025;-75
2023/04/13 07:21:12;;;;;;;0.20;0.20;;;;;;;;;;4996362;28;20061;-79
2023/04/13 07:23:58;;;;;;;0.10;0.10;;;;;;;;;;5005427;28;20187;-80
2023/04/13 07:26:23;;;;;;;0.10;0.10;;;;;;;;;;5011972;28;20038;-79
2023/04/13 07:28:49;;;;;;;0.25;0.25;;;;;;;;;;4987073;28;20394;-81
2023/04/13 07:31:15;;;;;;;0.10;0.10;;;;;;;;;;5004210;28;20389;-80
2023/04/13 07:33:45;;;;;;;0.20;0.20;;;;;;;;;;4977676;28;20061;-79
2023/04/13 07:36:11;;;;;;;0.10;0.10;;;;;;;;;;4977086;28;20042;-77
2023/04/13 07:38:39;;;;;;;5.82;1.45;;;;;;;;;;4990389;28;20553;-77
2023/04/13 07:41:06;;;;;;;0.10;0.10;;;;;;;;;;4990607;28;20061;-77
2023/04/13 07:43:34;;;;;;;0.10;0.10;;;;;;;;;;4992332;28;20041;-84
2023/04/13 07:46:12;;;;;;;0.10;0.10;;;;;;;;;;4974543;28;20047;-87
2023/04/13 07:48:40;;;;;;;0.10;0.10;;;;;;;;;;4979742;28;20026;-80
2023/04/13 07:51:19;;;;;;;0.10;0.10;;;;;;;;;;4994306;28;20037;-79
2023/04/13 07:53:47;;;;;;;0.10;0.10;;;;;;;;;;4993772;28;20061;-80
2023/04/13 07:56:13;;;;;;;0.10;0.10;;;;;;;;;;4993969;28;20034;-79
2023/04/13 07:58:40;;;;;;;0.20;0.20;;;;;;;;;;5010962;28;20030;-76
2023/04/13 08:01:06;;;;;;;0.20;0.20;;;;;;;;;;5005054;28;20435;-76
2023/04/13 08:03:33;;;;;;;0.22;0.22;;;;;;;;;;4984343;28;20058;-77
2023/04/13 08:06:01;;;;;;;0.20;0.20;;;;;;;;;;4966335;28;20034;-76
2023/04/13 08:08:28;;;;;;;7.88;6.45;;;;;;;;;;5011120;28;20045;-75
2023/04/13 08:10:54;;;;;;;0.22;0.22;;;;;;;;;;4980400;28;20034;-77
2023/04/13 08:13:22;;;;;;;0.15;0.15;;;;;;;;;;4981962;28;20126;-75
2023/04/13 08:15:49;;;;;;;0.20;0.20;;;;;;;;;;4997461;28;20037;-75
2023/04/13 08:18:15;;;;;;;0.20;0.20;;;;;;;;;;4992316;28;21737;-76
2023/04/13 08:20:41;;;;;;;0.13;0.13;;;;;;;;;;5008515;28;20408;-75
2023/04/13 08:23:07;;;;;;;0.10;0.10;;;;;;;;;;4992291;28;20045;-72
2023/04/13 08:25:38;;;;;;;6.82;0.85;;;;;;;;;;4990652;28;20477;-76
2023/04/13 08:28:03;;;;;;;0.68;0.47;;;;;;;;;;4989876;28;20045;-76
2023/04/13 08:30:31;;;;;;;0.20;0.20;;;;;;;;;;4991139;28;20038;-76
2023/04/13 08:33:01;;;;;;;0.35;0.35;;;;;;;;;;4989014;28;20033;-75
2023/04/13 08:35:27;;;;;;;0.20;0.20;;;;;;;;;;4987176;28;20045;-76
2023/04/13 08:37:52;;;;;;;0.20;0.20;;;;;;;;;;4969324;28;20038;-75
2023/04/13 08:40:18;;;;;;;0.15;0.15;;;;;;;;;;4985122;28;20757;-75
2023/04/13 08:42:45;;;;;;;0.10;0.10;;;;;;;;;;4970423;28;20034;-75
2023/04/13 08:45:12;;;;;;;0.20;0.20;;;;;;;;;;4971217;28;20101;-73
2023/04/13 08:47:42;;;;;;;0.20;0.20;;;;;;;;;;4984579;28;20429;-77
2023/04/13 08:50:08;;;;;;;0.40;0.40;;;;;;;;;;4988798;28;20034;-76
2023/04/13 08:52:40;;;;;;;0.73;0.47;;;;;;;;;;5006804;28;20092;-74
2023/04/13 08:55:06;;;;;;;0.13;0.13;;;;;;;;;;5003550;28;20040;-75
2023/04/13 08:57:34;;;;;;;0.32;0.32;;;;;;;;;;4989252;28;20461;-75
2023/04/13 09:00:00;;;;;;;0.32;0.32;;;;;;;;;;4988397;28;20469;-77
2023/04/13 09:02:33;;;;;;;0.20;0.20;;;;;;;;;;4989503;28;20071;-74
2023/04/13 09:05:04;;;;;;;0.43;0.43;;;;;;;;;;4988496;28;20558;-73
2023/04/13 09:07:31;;;;;;;0.30;0.30;;;;;;;;;;4988893;28;20434;-76
2023/04/13 09:10:04;;;;;;;0.68;0.68;;;;;;;;;;4973466;28;20296;-75
2023/04/13 09:12:30;;;;;;;0.23;0.23;;;;;;;;;;4983523;28;20141;-73
2023/04/13 09:14:57;;;;;;;3.85;0.30;;;;;;;;;;4982796;28;20041;-74
2023/04/13 09:17:26;;;;;;;0.65;0.65;;;;;;;;;;4989059;28;20432;-74
2023/04/13 09:19:54;;;;;;;0.20;0.20;;;;;;;;;;4987948;28;20241;-74
2023/04/13 09:22:20;;;;;;;0.40;0.40;;;;;;;;;;5004877;28;20056;-75
2023/04/13 09:24:46;;;;;;;1.05;0.70;;;;;;;;;;5003642;28;20045;-75
2023/04/13 09:27:19;;;;;;;0.28;0.28;;;;;;;;;;5005836;28;20045;-75
2023/04/13 09:29:51;;;;;;;0.35;0.35;;;;;;;;;;4987660;28;20736;-75
2023/04/13 09:32:24;;;;;;;0.10;0.10;;;;;;;;;;4988340;28;20065;-74
2023/04/13 09:34:56;;;;;;;0.93;0.40;;;;;;;;;;4988093;28;20134;-76
2023/04/13 09:37:22;;;;;;;1.55;1.33;;;;;;;;;;4987937;28;20039;-74
2023/04/13 09:39:47;;;;;;;6.38;0.80;;;;;;;;;;4970854;28;20042;-75
2023/04/13 09:42:16;;;;;;;0.20;0.20;;;;;;;;;;4989615;28;20046;-75
2023/04/13 09:44:42;;;;;;;0.40;0.40;;;;;;;;;;4989730;28;20038;-75
2023/04/13 09:47:07;;;;;;;0.20;0.20;;;;;;;;;;4989764;28;20386;-75
2023/04/13 09:49:36;;;;;;;0.40;0.30;;;;;;;;;;4972123;28;20043;-73
2023/04/13 09:52:02;;;;;;;0.60;0.60;;;;;;;;;;4989291;28;20048;-75
2023/04/13 09:54:27;;;;;;;1.77;1.05;;;;;;;;;;4989756;28;20034;-76
2023/04/13 09:56:55;;;;;;;0.30;0.30;;;;;;;;;;4988143;28;20034;-75
2023/04/13 09:59:22;;;;;;;1.13;1.02;;;;;;;;;;4988697;28;20031;-74
2023/04/13 10:01:48;;;;;;;0.20;0.20;;;;;;;;;;4989760;28;20093;-75
2023/04/13 10:04:14;;;;;;;0.20;0.20;;;;;;;;;;4988903;28;20498;-74
2023/04/13 10:06:41;;;;;;;1.10;0.38;;;;;;;;;;4989353;28;20101;-75
2023/04/13 10:09:07;;;;;;;4.05;1.23;;;;;;;;;;4989434;28;20049;-74
2023/04/13 10:11:36;;;;;;;0.20;0.20;;;;;;;;;;4989752;28;20818;-74
2023/04/13 10:14:07;;;;;;;0.50;0.50;;;;;;;;;;4989740;28;20038;-75
2023/04/13 10:16:39;;;;;;;0.32;0.32;;;;;;;;;;4989485;28;20406;-75
2023/04/13 10:19:12;;;;;;;0.20;0.20;;;;;;;;;;4989451;28;20117;-74
2023/04/13 10:21:38;;;;;;;0.35;0.35;;;;;;;;;;4989333;28;20033;-76
2023/04/13 10:24:05;;;;;;;9.05;3.38;;;;;;;;;;4972377;28;20448;-74
2023/04/13 10:26:30;;;;;;;0.20;0.20;;;;;;;;;;4989563;28;20042;-74
2023/04/13 10:28:57;;;;;;;1.23;0.45;;;;;;;;;;4989915;28;20049;-75
2023/04/13 10:31:35;;;;;;;0.17;0.17;;;;;;;;;;4988031;28;20050;-74
2023/04/13 10:34:00;;;;;;;0.30;0.30;;;;;;;;;;4986586;28;20034;-75
2023/04/13 10:36:34;;;;;;;4.68;0.85;;;;;;;;;;5001030;28;20528;-76
2023/04/13 10:38:59;;;;;;;3.25;3.05;;;;;;;;;;5004034;28;20527;-75
2023/04/13 10:41:25;;;;;;;0.60;0.50;;;;;;;;;;5004380;28;20117;-75
2023/04/13 10:44:03;;;;;;;0.40;0.40;;;;;;;;;;5000019;28;20162;-74
2023/04/13 10:46:29;;;;;;;1.88;0.70;;;;;;;;;;5002798;28;20037;-75
2023/04/13 10:48:57;;;;;;;0.40;0.40;;;;;;;;;;5002733;28;20040;-74
2023/04/13 10:51:23;;;;;;;2.75;1.15;;;;;;;;;;5004200;28;20045;-74
2023/04/13 10:53:49;;;;;;;2.25;1.30;;;;;;;;;;4999670;28;20030;-77
2023/04/13 10:56:18;;;;;;;0.55;0.55;;;;;;;;;;5001492;28;20037;-74
2023/04/13 10:58:50;;;;;;;0.52;0.50;;;;;;;;;;4997959;28;20054;-76
2023/04/13 11:01:15;;;;;;;0.30;0.30;;;;;;;;;;4999253;28;20113;-76
2023/04/13 11:03:40;;;;;;;4.30;0.93;;;;;;;;;;4997252;28;20121;-76
2023/04/13 11:06:07;;;;;;;0.95;0.60;;;;;;;;;;5000908;28;20072;-76
2023/04/13 11:08:35;;;;;;;0.30;0.30;;;;;;;;;;5006072;28;20038;-76
2023/04/13 11:11:00;;;;;;;0.70;0.65;;;;;;;;;;5008756;28;20064;-75
2023/04/13 11:13:27;;;;;;;14.18;0.95;;;;;;;;;;5008859;28;20397;-76
2023/04/13 11:16:02;;;;;;;1.45;0.95;;;;;;;;;;5009208;28;20030;-76
2023/04/13 11:18:28;;;;;;;0.65;0.40;;;;;;;;;;5012456;28;20042;-74
2023/04/13 11:20:53;;;;;;;1.55;0.73;;;;;;;;;;5013100;28;20036;-76
2023/04/13 11:23:19;;;;;;;4.57;3.13;;;;;;;;;;5012126;28;20029;-76
2023/04/13 11:25:58;;;;;;;2.60;1.17;;;;;;;;;;5012246;28;20040;-75
2023/04/13 11:28:25;;;;;;;1.20;1.02;;;;;;;;;;4995203;28;20064;-76
2023/04/13 11:30:56;;;;;;;0.15;0.15;;;;;;;;;;5012586;28;20040;-75
2023/04/13 11:33:23;;;;;;;0.35;0.35;;;;;;;;;;5012311;28;20034;-75
2023/04/13 11:35:49;;;;;;;0.80;0.40;;;;;;;;;;4995173;28;20046;-76
2023/04/13 11:38:16;;;;;;;11.07;4.07;;;;;;;;;;5012273;28;20504;-76
2023/04/13 11:40:44;;;;;;;5.65;1.42;;;;;;;;;;5012281;28;20087;-75
2023/04/13 11:43:10;;;;;;;5.53;1.83;;;;;;;;;;4994239;28;20099;-77
2023/04/13 11:45:37;;;;;;;2.30;1.45;;;;;;;;;;5012039;28;20041;-77
2023/04/13 11:48:05;;;;;;;0.47;0.47;;;;;;;;;;5012259;28;20053;-76
2023/04/13 11:50:31;;;;;;;0.40;0.40;;;;;;;;;;4994510;28;20124;-75
2023/04/13 11:52:56;;;;;;;1.95;0.77;;;;;;;;;;5011844;28;20041;-76
2023/04/13 11:55:22;;;;;;;2.97;1.42;;;;;;;;;;5011708;28;20519;-75
2023/04/13 11:57:48;;;;;;;9.77;2.47;;;;;;;;;;5011819;28;20378;-76
2023/04/13 12:00:17;;;;;;;7.97;1.65;;;;;;;;;;5011617;28;20022;-75
2023/04/13 12:02:43;;;;;;;4.38;1.55;;;;;;;;;;5011756;28;20045;-75
2023/04/13 12:05:23;;;;;;;1.08;0.68;;;;;;;;;;5011290;28;20037;-76
2023/04/13 12:07:48;;;;;;;2.55;0.75;;;;;;;;;;5011760;28;20522;-74
2023/04/13 12:10:31;;;;;;;3.85;0.82;;;;;;;;;;5011901;28;20030;-76
2023/04/13 12:12:57;;;;;;;16.98;1.55;;;;;;;;;;5011173;28;20026;-76
2023/04/13 12:15:27;;;;;;;9.45;2.45;;;;;;;;;;5011041;28;20529;-74
2023/04/13 12:18:03;;;;;;;6.25;1.98;;;;;;;;;;5011058;28;20512;-75
2023/04/13 12:20:35;;;;;;;5.07;1.85;;;;;;;;;;5011421;28;20080;-75
2023/04/13 12:23:01;;;;;;;22.75;2.65;;;;;;;;;;5011232;28;20038;-75
2023/04/13 12:25:28;;;;;;;14.30;2.63;;;;;;;;;;5011116;28;20034;-71
2023/04/13 12:27:53;;;;;;;7.90;2.15;;;;;;;;;;4993087;28;20037;-71
2023/04/13 12:30:20;;;;;;;12.10;2.05;;;;;;;;;;5011264;28;20032;-72
2023/04/13 12:32:57;;;;;;;4.78;1.13;;;;;;;;;;5011089;28;20048;-71
2023/04/13 12:35:22;;;;;;;14.52;1.70;;;;;;;;;;5010914;28;20030;-71
2023/04/13 12:37:49;;;;;;;8.07;1.17;;;;;;;;;;5011362;28;20034;-70
2023/04/13 12:40:15;;;;;;;6.13;1.10;;;;;;;;;;5011335;28;20041;-72
2023/04/13 12:42:44;;;;;;;6.40;2.72;;;;;;;;;;5012343;28;20026;-71
2023/04/13 12:45:10;;;;;;;7.35;1.35;;;;;;;;;;5012187;28;20041;-72
2023/04/13 12:47:35;;;;;;;5.82;1.13;;;;;;;;;;5011282;28;20034;-72
2023/04/13 12:50:05;;;;;;;13.15;2.17;;;;;;;;;;5011267;28;20117;-72
2023/04/13 12:52:31;;;;;;;12.25;1.38;;;;;;;;;;5011944;28;20038;-71
2023/04/13 12:54:57;;;;;;;17.08;2.20;;;;;;;;;;5010962;28;20041;-74
2023/04/13 12:57:23;;;;;;;5.05;0.80;;;;;;;;;;5010427;28;20033;-73
2023/04/13 12:59:48;;;;;;;5.25;0.82;;;;;;;;;;5010204;28;20163;-71
2023/04/13 13:02:14;;;;;;;8.15;2.15;;;;;;;;;;5010793;28;20049;-72
2023/04/13 13:04:40;;;;;;;5.97;1.10;;;;;;;;;;5010678;28;20515;-70
2023/04/13 13:07:05;;;;;;;15.02;3.20;;;;;;;;;;5010247;28;20034;-71
2023/04/13 13:09:30;;;;;;;20.08;1.92;;;;;;;;;;5010340;28;20436;-73
2023/04/13 13:11:56;;;;;;;3.20;0.93;;;;;;;;;;5010422;28;20388;-72
2023/04/13 13:14:22;;;;;;;2.55;1.10;;;;;;;;;;4993021;28;20038;-71
2023/04/13 13:16:48;;;;;;;6.47;1.13;;;;;;;;;;5010537;28;20022;-72
2023/04/13 13:19:14;;;;;;;0.10;0.10;;;;;;;;;;5010436;28;20045;-73
2023/04/13 13:21:40;;;;;;;11.45;1.40;;;;;;;;;;5010405;28;20034;-74
2023/04/13 13:24:05;;;;;;;6.70;2.35;;;;;;;;;;5010289;28;20065;-72
2023/04/13 13:26:31;;;;;;;4.28;1.58;;;;;;;;;;5010082;28;20041;-72
2023/04/13 13:28:56;;;;;;;23.73;2.25;;;;;;;;;;5010250;28;20033;-72
2023/04/13 13:31:22;;;;;;;11.70;2.20;;;;;;;;;;5010128;28;20061;-71
2023/04/13 13:33:47;;;;;;;4.10;1.52;;;;;;;;;;5009975;28;20034;-73
2023/04/13 13:36:12;;;;;;;3.65;1.15;;;;;;;;;;4992865;28;20555;-72
2023/04/13 13:38:38;;;;;;;5.07;1.00;;;;;;;;;;5009811;28;20082;-72
2023/04/13 13:41:03;;;;;;;8.15;1.45;;;;;;;;;;5009598;28;20040;-71
2023/04/13 13:43:29;;;;;;;0.30;0.30;;;;;;;;;;5009761;28;20038;-72
2023/04/13 13:45:54;;;;;;;0.10;0.10;;;;;;;;;;4993884;28;20041;-73
2023/04/13 13:48:22;;;;;;;6.20;1.95;;;;;;;;;;4974416;28;20022;-74
2023/04/13 13:50:56;;;;;;;4.43;1.70;;;;;;;;;;4970480;28;20037;-73
2023/04/13 13:53:23;;;;;;;5.75;1.30;;;;;;;;;;4969123;28;20038;-74
2023/04/13 13:55:49;;;;;;;13.45;1.92;;;;;;;;;;4984931;28;20100;-74
2023/04/13 13:58:15;;;;;;;16.25;2.63;;;;;;;;;;4986995;28;20038;-74
2023/04/13 14:00:40;;;;;;;7.57;2.05;;;;;;;;;;4987823;28;20045;-72
2023/04/13 14:03:06;;;;;;;0.13;0.10;;;;;;;;;;4989779;28;20034;-73
2023/04/13 14:05:31;;;;;;;1.15;0.50;;;;;;;;;;4982636;28;20048;-73
2023/04/13 14:07:57;;;;;;;4.78;1.45;;;;;;;;;;5001751;28;20111;-73
2023/04/13 14:10:22;;;;;;;8.32;1.70;;;;;;;;;;4995392;28;20134;-74
2023/04/13 14:12:47;;;;;;;0.85;0.63;;;;;;;;;;4977487;28;20038;-73
2023/04/13 14:15:13;;;;;;;9.32;1.55;;;;;;;;;;4987020;28;20482;-73
2023/04/13 14:17:38;;;;;;;13.27;3.38;;;;;;;;;;4986815;28;20423;-73
2023/04/13 14:20:10;;;;;;;17.58;2.80;;;;;;;;;;4993810;28;20037;-72
2023/04/13 14:22:37;;;;;;;8.32;1.00;;;;;;;;;;5003068;28;20477;-74
2023/04/13 14:25:03;;;;;;;4.45;1.48;;;;;;;;;;4999199;28;20053;-74
2023/04/13 14:27:28;;;;;;;3.03;1.20;;;;;;;;;;4992415;28;20088;-74
2023/04/13 14:29:54;;;;;;;2.45;0.98;;;;;;;;;;5006476;28;20033;-73
2023/04/13 14:32:19;;;;;;;4.65;0.90;;;;;;;;;;5006713;28;20393;-73
2023/04/13 14:34:46;;;;;;;4.95;1.40;;;;;;;;;;4996365;28;20105;-75
2023/04/13 14:37:12;;;;;;;7.50;1.90;;;;;;;;;;5002163;28;20057;-75
2023/04/13 14:39:38;;;;;;;11.45;1.23;;;;;;;;;;4994643;28;20034;-74
2023/04/13 14:42:03;;;;;;;5.88;0.75;;;;;;;;;;5001277;28;20115;-75
2023/04/13 14:44:29;;;;;;;8.15;1.25;;;;;;;;;;4998451;28;20057;-75
2023/04/13 14:46:54;;;;;;;5.03;0.63;;;;;;;;;;5004725;28;20060;-73
2023/04/13 14:49:20;;;;;;;6.32;0.80;;;;;;;;;;5005022;28;20806;-74